Time;durP1;ratioP1;P1;durP2;ratioP2;P2;SDS_P1;SDS_P2;PMS_P1;PMS_P2;Temp;Humidity;BMP_temperature;BMP_pressure;BME280_temperature;BME280_humidity;BME280_pressure;Samples;Min_cycle;Max_cycle;Signal;HPM_P1;HPM_P2
2023/10/23 04:02:24;;;;;;;1999.90;999.90;;;;;;;;;;5188517;23;20315;-68
2023/10/23 04:05:09;;;;;;;1999.90;999.90;;;;;;;;;;4974145;28;20419;-68
2023/10/23 04:07:54;;;;;;;1999.90;999.90;;;;;;;;;;4975637;28;20230;-67
2023/10/23 04:10:45;;;;;;;1999.90;999.90;;;;;;;;;;4972615;28;20236;-68
2023/10/23 04:13:29;;;;;;;1999.90;999.90;;;;;;;;;;4954949;28;20318;-67
2023/10/23 04:16:15;;;;;;;1999.90;999.90;;;;;;;;;;4955962;28;20798;-67
2023/10/23 04:19:02;;;;;;;1999.90;999.90;;;;;;;;;;4948998;28;20232;-67
2023/10/23 04:21:46;;;;;;;1999.90;999.90;;;;;;;;;;4955511;28;20241;-67
2023/10/23 04:24:31;;;;;;;1999.90;999.90;;;;;;;;;;4956311;28;20217;-68
2023/10/23 04:27:16;;;;;;;1999.90;999.90;;;;;;;;;;4960784;28;20216;-66
2023/10/23 04:30:01;;;;;;;1999.90;999.90;;;;;;;;;;4957134;28;20217;-68
2023/10/23 04:32:46;;;;;;;1999.90;999.90;;;;;;;;;;4955897;29;20288;-67
2023/10/23 04:35:33;;;;;;;1999.90;999.90;;;;;;;;;;4955928;29;20208;-66
2023/10/23 04:38:18;;;;;;;1999.90;999.90;;;;;;;;;;4955335;29;20216;-67
2023/10/23 04:41:03;;;;;;;1999.90;999.90;;;;;;;;;;4955107;28;20229;-67
2023/10/23 04:43:48;;;;;;;1999.90;999.90;;;;;;;;;;4955365;29;20226;-68
2023/10/23 04:46:33;;;;;;;1999.90;999.90;;;;;;;;;;4956102;29;20208;-67
2023/10/23 04:49:18;;;;;;;1999.90;999.90;;;;;;;;;;4955261;29;20345;-67
2023/10/23 04:52:05;;;;;;;1999.90;999.90;;;;;;;;;;4955345;29;20275;-68
2023/10/23 04:54:50;;;;;;;1999.90;999.90;;;;;;;;;;4955292;29;20216;-66
2023/10/23 04:57:35;;;;;;;1999.90;999.90;;;;;;;;;;4955091;29;20614;-67
2023/10/23 05:00:20;;;;;;;1999.90;999.90;;;;;;;;;;4954479;29;20416;-66
2023/10/23 05:03:05;;;;;;;1999.90;999.90;;;;;;;;;;4955231;29;20311;-68
2023/10/23 05:05:51;;;;;;;1999.90;999.90;;;;;;;;;;4954946;29;20218;-67
2023/10/23 05:08:37;;;;;;;1999.90;999.90;;;;;;;;;;4935836;29;20206;-68
2023/10/23 05:11:22;;;;;;;1999.90;999.90;;;;;;;;;;4935554;29;20249;-67
2023/10/23 05:14:07;;;;;;;1999.90;999.90;;;;;;;;;;4935863;29;20590;-67
2023/10/23 05:16:52;;;;;;;1999.90;999.90;;;;;;;;;;4935849;29;20217;-67
2023/10/23 05:19:37;;;;;;;1999.90;999.90;;;;;;;;;;4935303;29;20231;-68
2023/10/23 05:22:22;;;;;;;1999.90;999.90;;;;;;;;;;4939888;29;20537;-66
2023/10/23 05:25:09;;;;;;;1999.90;999.90;;;;;;;;;;4958804;28;20220;-68
2023/10/23 05:27:55;;;;;;;1999.90;999.90;;;;;;;;;;4954329;28;20218;-66
2023/10/23 05:30:40;;;;;;;1999.90;999.90;;;;;;;;;;4960153;28;20232;-68
2023/10/23 05:33:25;;;;;;;1999.90;999.90;;;;;;;;;;4954481;28;20217;-66
2023/10/23 05:36:10;;;;;;;1999.90;999.90;;;;;;;;;;4947895;28;20220;-68
2023/10/23 05:38:55;;;;;;;1999.90;999.90;;;;;;;;;;4953924;28;20256;-65
2023/10/23 05:41:41;;;;;;;1999.90;999.90;;;;;;;;;;4962131;28;20367;-68
2023/10/23 05:44:26;;;;;;;1999.90;999.90;;;;;;;;;;4954327;28;20208;-66
2023/10/23 05:47:11;;;;;;;1999.90;999.90;;;;;;;;;;4947855;28;20204;-67
2023/10/23 05:49:55;;;;;;;1999.90;999.90;;;;;;;;;;4954001;28;20289;-68
2023/10/23 05:52:40;;;;;;;1999.90;999.90;;;;;;;;;;4962105;28;20252;-67
2023/10/23 05:55:25;;;;;;;1999.90;999.90;;;;;;;;;;4953984;28;20217;-67
2023/10/23 05:58:11;;;;;;;1999.90;999.90;;;;;;;;;;4947163;28;20349;-68
2023/10/23 06:00:56;;;;;;;1999.90;999.90;;;;;;;;;;4950437;28;20248;-67
2023/10/23 06:03:41;;;;;;;1999.90;999.90;;;;;;;;;;4934577;29;20209;-68
2023/10/23 06:06:26;;;;;;;1999.90;999.90;;;;;;;;;;4934241;29;20687;-67
2023/10/23 06:09:11;;;;;;;1999.90;999.90;;;;;;;;;;4927973;29;20299;-67
2023/10/23 06:11:56;;;;;;;1999.90;999.90;;;;;;;;;;4934554;29;20269;-67
2023/10/23 06:14:42;;;;;;;1999.90;999.90;;;;;;;;;;4931879;29;20217;-68
2023/10/23 06:17:28;;;;;;;1999.90;999.90;;;;;;;;;;4934379;29;20312;-68
2023/10/23 06:20:13;;;;;;;1999.90;999.90;;;;;;;;;;4936012;29;20428;-67
2023/10/23 06:22:57;;;;;;;1999.90;999.90;;;;;;;;;;4953094;29;20205;-67
2023/10/23 06:25:42;;;;;;;1999.90;999.90;;;;;;;;;;4941606;29;20214;-67
2023/10/23 06:28:27;;;;;;;1999.90;999.90;;;;;;;;;;4934568;29;20200;-68
2023/10/23 06:31:13;;;;;;;1999.90;999.90;;;;;;;;;;4934336;29;20305;-67
2023/10/23 06:33:59;;;;;;;1999.90;999.90;;;;;;;;;;4934663;29;20257;-67
2023/10/23 06:36:43;;;;;;;1999.90;999.90;;;;;;;;;;4934609;29;20217;-67
2023/10/23 06:39:28;;;;;;;1999.90;999.90;;;;;;;;;;4934268;29;20728;-67
2023/10/23 06:42:13;;;;;;;1999.90;999.90;;;;;;;;;;4933499;29;20418;-67
2023/10/23 06:44:58;;;;;;;1999.90;999.90;;;;;;;;;;4934642;29;20214;-66
2023/10/23 06:47:47;;;;;;;1999.90;999.90;;;;;;;;;;4934782;29;20209;-66
2023/10/23 06:50:32;;;;;;;1999.90;999.90;;;;;;;;;;4934561;29;20577;-67
2023/10/23 06:53:17;;;;;;;1999.90;999.90;;;;;;;;;;4934554;29;20229;-68
2023/10/23 06:56:03;;;;;;;1999.90;999.90;;;;;;;;;;4934545;29;20707;-65
2023/10/23 06:58:47;;;;;;;1999.90;999.90;;;;;;;;;;4934129;29;20217;-67
2023/10/23 07:01:32;;;;;;;1999.90;999.90;;;;;;;;;;4934056;29;20289;-67
2023/10/23 07:04:19;;;;;;;1999.90;999.90;;;;;;;;;;4934609;29;20297;-67
2023/10/23 07:07:04;;;;;;;1999.90;999.90;;;;;;;;;;4938276;29;20570;-67
2023/10/23 07:09:49;;;;;;;1999.90;999.90;;;;;;;;;;4938256;29;20578;-67
2023/10/23 07:12:34;;;;;;;1999.90;999.90;;;;;;;;;;4938868;29;20242;-67
2023/10/23 07:15:19;;;;;;;1999.90;999.90;;;;;;;;;;4918853;29;20658;-69
2023/10/23 07:18:04;;;;;;;1999.90;999.90;;;;;;;;;;4918748;29;20710;-69
2023/10/23 07:20:54;;;;;;;1999.90;999.90;;;;;;;;;;4934487;29;20717;-68
2023/10/23 07:23:40;;;;;;;1999.90;999.90;;;;;;;;;;4937426;29;20213;-68
2023/10/23 07:26:24;;;;;;;1999.90;999.90;;;;;;;;;;4940699;29;20592;-68
2023/10/23 07:29:09;;;;;;;1999.90;999.90;;;;;;;;;;4941321;29;20269;-68
2023/10/23 07:31:54;;;;;;;1999.90;999.90;;;;;;;;;;4943754;28;20237;-68
2023/10/23 07:34:39;;;;;;;1999.90;999.90;;;;;;;;;;4946597;29;20713;-68
2023/10/23 07:37:27;;;;;;;1999.90;999.90;;;;;;;;;;4945008;29;20217;-68
2023/10/23 07:40:12;;;;;;;1999.90;999.90;;;;;;;;;;4946537;29;20343;-68
2023/10/23 07:42:57;;;;;;;1999.90;999.90;;;;;;;;;;4935435;29;20209;-70
2023/10/23 07:45:42;;;;;;;1999.90;999.90;;;;;;;;;;4937215;29;20217;-68
2023/10/23 07:48:27;;;;;;;1999.90;999.90;;;;;;;;;;4937229;29;20206;-68
2023/10/23 07:51:12;;;;;;;1999.90;999.90;;;;;;;;;;4937124;29;20231;-68
2023/10/23 07:53:58;;;;;;;1999.90;999.90;;;;;;;;;;4936989;29;20598;-68
2023/10/23 07:56:44;;;;;;;1999.90;999.90;;;;;;;;;;4937111;29;20265;-68
2023/10/23 07:59:29;;;;;;;1999.90;999.90;;;;;;;;;;4936697;29;20436;-69
2023/10/23 08:02:14;;;;;;;1999.90;999.90;;;;;;;;;;4950627;28;20276;-68
2023/10/23 08:04:59;;;;;;;1999.90;999.90;;;;;;;;;;4956309;29;20582;-68
2023/10/23 08:07:44;;;;;;;1999.90;999.90;;;;;;;;;;4956290;29;20292;-68
2023/10/23 08:10:31;;;;;;;1999.90;999.90;;;;;;;;;;4955969;29;20336;-68
2023/10/23 08:13:16;;;;;;;1999.90;999.90;;;;;;;;;;4955977;29;20224;-68
2023/10/23 08:16:01;;;;;;;1999.90;999.90;;;;;;;;;;4955829;28;20212;-69
2023/10/23 08:18:46;;;;;;;1999.90;999.90;;;;;;;;;;4955683;29;20224;-68
2023/10/23 08:21:32;;;;;;;1999.90;999.90;;;;;;;;;;4955965;28;20244;-69
2023/10/23 08:24:17;;;;;;;1999.90;999.90;;;;;;;;;;4955883;29;20709;-69
2023/10/23 08:27:04;;;;;;;1999.90;999.90;;;;;;;;;;4955823;29;20213;-69
2023/10/23 08:29:49;;;;;;;1999.90;999.90;;;;;;;;;;4955224;29;20256;-69
2023/10/23 08:32:35;;;;;;;1999.90;999.90;;;;;;;;;;4955710;29;20299;-68
2023/10/23 08:35:20;;;;;;;1999.90;999.90;;;;;;;;;;4954170;29;20213;-68
2023/10/23 08:38:05;;;;;;;1999.90;999.90;;;;;;;;;;4955265;29;20701;-68
2023/10/23 08:40:51;;;;;;;1999.90;999.90;;;;;;;;;;4955233;29;20308;-69
2023/10/23 08:43:37;;;;;;;1999.90;999.90;;;;;;;;;;4955584;29;20216;-68
2023/10/23 08:46:24;;;;;;;1999.90;999.90;;;;;;;;;;4955241;29;20209;-68
2023/10/23 08:49:10;;;;;;;1999.90;999.90;;;;;;;;;;4955324;29;20205;-69
2023/10/23 08:51:58;;;;;;;1999.90;999.90;;;;;;;;;;4955097;28;20737;-69
2023/10/23 08:54:43;;;;;;;1999.90;999.90;;;;;;;;;;4954810;29;20817;-69
2023/10/23 08:57:29;;;;;;;1999.90;999.90;;;;;;;;;;4954505;29;20526;-68
2023/10/23 09:00:16;;;;;;;1999.90;999.90;;;;;;;;;;4954851;29;20312;-69
2023/10/23 09:03:01;;;;;;;1999.90;999.90;;;;;;;;;;4955220;29;20217;-69
2023/10/23 09:05:46;;;;;;;1999.90;999.90;;;;;;;;;;4955071;29;20215;-67
2023/10/23 09:08:34;;;;;;;1999.90;999.90;;;;;;;;;;4954710;29;20217;-68
2023/10/23 09:11:19;;;;;;;1999.90;999.90;;;;;;;;;;4947612;29;20237;-68
2023/10/23 09:14:04;;;;;;;1999.90;999.90;;;;;;;;;;4935886;29;20225;-68
2023/10/23 09:16:51;;;;;;;1999.90;999.90;;;;;;;;;;4943068;29;20209;-67
2023/10/23 09:19:37;;;;;;;1999.90;999.90;;;;;;;;;;4953434;29;20461;-68
2023/10/23 09:22:28;;;;;;;1999.90;999.90;;;;;;;;;;4954284;28;20233;-67
2023/10/23 09:25:14;;;;;;;1999.90;999.90;;;;;;;;;;4954592;29;20209;-67
2023/10/23 09:28:00;;;;;;;1999.90;999.90;;;;;;;;;;4952903;28;20212;-68
2023/10/23 09:30:45;;;;;;;1999.90;999.90;;;;;;;;;;4953360;28;20275;-68
2023/10/23 09:33:32;;;;;;;1999.90;999.90;;;;;;;;;;4954829;29;20228;-67
2023/10/23 09:36:18;;;;;;;1999.90;999.90;;;;;;;;;;4953481;29;20208;-67
2023/10/23 09:39:04;;;;;;;1999.90;999.90;;;;;;;;;;4954406;29;20232;-67
2023/10/23 09:41:49;;;;;;;1999.90;999.90;;;;;;;;;;4954488;28;20308;-66
2023/10/23 09:44:36;;;;;;;1999.90;999.90;;;;;;;;;;4954455;29;20204;-67
2023/10/23 09:47:22;;;;;;;1999.90;999.90;;;;;;;;;;4958048;28;20203;-67
2023/10/23 09:50:09;;;;;;;1999.90;999.90;;;;;;;;;;4973560;28;20341;-67
2023/10/23 09:52:56;;;;;;;1999.90;999.90;;;;;;;;;;4955235;28;20699;-67
2023/10/23 09:55:42;;;;;;;1999.90;999.90;;;;;;;;;;4954006;29;20221;-67
2023/10/23 09:58:30;;;;;;;1999.90;999.90;;;;;;;;;;4953663;29;20767;-67
2023/10/23 10:01:17;;;;;;;1999.90;999.90;;;;;;;;;;4947903;28;20237;-67
2023/10/23 10:04:08;;;;;;;1999.90;999.90;;;;;;;;;;4934261;29;20204;-67
2023/10/23 10:06:56;;;;;;;1999.90;999.90;;;;;;;;;;4934898;29;20372;-66
2023/10/23 10:09:42;;;;;;;1999.90;999.90;;;;;;;;;;4934852;29;20210;-68
2023/10/23 10:12:27;;;;;;;1999.90;999.90;;;;;;;;;;4934841;29;20228;-68
2023/10/23 10:15:13;;;;;;;1999.90;999.90;;;;;;;;;;4933775;29;20433;-67
2023/10/23 10:17:58;;;;;;;1999.90;999.90;;;;;;;;;;4934260;29;20214;-67
2023/10/23 10:20:46;;;;;;;1999.90;999.90;;;;;;;;;;4934455;29;20610;-67
2023/10/23 10:23:32;;;;;;;1999.90;999.90;;;;;;;;;;4934719;29;20585;-68
2023/10/23 10:26:18;;;;;;;1999.90;999.90;;;;;;;;;;4934779;29;20215;-66
2023/10/23 10:29:03;;;;;;;1999.90;999.90;;;;;;;;;;4934521;29;20210;-66
2023/10/23 10:32:12;;;;;;;1999.90;999.90;;;;;;;;;;4934228;29;20305;-69
2023/10/23 10:35:00;;;;;;;1999.90;999.90;;;;;;;;;;4925547;29;20222;-67
2023/10/23 10:37:50;;;;;;;1999.90;999.90;;;;;;;;;;4934346;29;20506;-67
2023/10/23 10:40:56;;;;;;;1999.90;999.90;;;;;;;;;;4918692;29;20307;-68
2023/10/23 10:43:41;;;;;;;1999.90;999.90;;;;;;;;;;4919613;29;20231;-68
2023/10/23 10:46:28;;;;;;;1999.90;999.90;;;;;;;;;;4919559;29;20219;-69
2023/10/23 10:49:15;;;;;;;1999.90;999.90;;;;;;;;;;4924409;29;20270;-67
2023/10/23 10:52:01;;;;;;;1999.90;999.90;;;;;;;;;;4937962;29;20279;-68
2023/10/23 10:54:46;;;;;;;1999.90;999.90;;;;;;;;;;4924704;29;20340;-67
2023/10/23 10:57:34;;;;;;;1999.90;999.90;;;;;;;;;;4937949;29;20315;-67
2023/10/23 11:00:19;;;;;;;1999.90;999.90;;;;;;;;;;4919111;29;20277;-67
2023/10/23 11:03:04;;;;;;;1999.90;999.90;;;;;;;;;;4930152;29;20219;-67
2023/10/23 11:05:48;;;;;;;1999.90;999.90;;;;;;;;;;4938197;29;20269;-68
2023/10/23 11:08:34;;;;;;;1999.90;999.90;;;;;;;;;;4937997;29;20217;-68
2023/10/23 11:11:19;;;;;;;1999.90;999.90;;;;;;;;;;4938084;29;20228;-67
2023/10/23 11:14:05;;;;;;;1999.90;999.90;;;;;;;;;;4937893;29;20232;-68
2023/10/23 11:16:51;;;;;;;1999.90;999.90;;;;;;;;;;4937709;29;20596;-68
2023/10/23 11:19:36;;;;;;;1999.90;999.90;;;;;;;;;;4937320;29;20228;-67
2023/10/23 11:22:22;;;;;;;1999.90;999.90;;;;;;;;;;4937789;29;20249;-67
2023/10/23 11:25:09;;;;;;;1999.90;999.90;;;;;;;;;;4918874;29;20219;-67
2023/10/23 11:27:54;;;;;;;1999.90;999.90;;;;;;;;;;4926765;29;20211;-68
2023/10/23 11:30:46;;;;;;;1999.90;999.90;;;;;;;;;;4937298;29;20231;-68
2023/10/23 11:33:32;;;;;;;1999.90;999.90;;;;;;;;;;4936869;29;21055;-69
2023/10/23 11:36:18;;;;;;;1999.90;999.90;;;;;;;;;;4922614;29;20696;-68
2023/10/23 11:39:07;;;;;;;1999.90;999.90;;;;;;;;;;4937248;29;20228;-68
2023/10/23 11:41:56;;;;;;;1999.90;999.90;;;;;;;;;;4937561;29;20242;-68
2023/10/23 11:44:41;;;;;;;1999.90;999.90;;;;;;;;;;4937408;29;20215;-68
2023/10/23 11:47:28;;;;;;;1999.90;999.90;;;;;;;;;;4937547;29;20328;-68
2023/10/23 11:50:13;;;;;;;1999.90;999.90;;;;;;;;;;4936581;29;20231;-68
2023/10/23 11:52:58;;;;;;;1999.90;999.90;;;;;;;;;;4937415;29;20216;-68
2023/10/23 11:55:44;;;;;;;1999.90;999.90;;;;;;;;;;4936192;29;20421;-67
2023/10/23 11:58:31;;;;;;;1999.90;999.90;;;;;;;;;;4937118;29;20697;-68
2023/10/23 12:01:16;;;;;;;1999.90;999.90;;;;;;;;;;4936857;29;20233;-68
2023/10/23 12:04:04;;;;;;;1999.90;999.90;;;;;;;;;;4936368;29;20352;-68
2023/10/23 12:06:49;;;;;;;1999.90;999.90;;;;;;;;;;4937133;29;20212;-68
2023/10/23 12:09:34;;;;;;;1999.90;999.90;;;;;;;;;;4936867;29;20407;-67
2023/10/23 12:12:19;;;;;;;1999.90;999.90;;;;;;;;;;4936739;29;20229;-67
2023/10/23 12:15:05;;;;;;;1999.90;999.90;;;;;;;;;;4937004;29;20352;-68
2023/10/23 12:17:50;;;;;;;1999.90;999.90;;;;;;;;;;4936674;29;20213;-67
2023/10/23 12:20:37;;;;;;;1999.90;999.90;;;;;;;;;;4936589;29;20739;-67
2023/10/23 12:23:22;;;;;;;1999.90;999.90;;;;;;;;;;4917938;29;20225;-68
2023/10/23 12:26:07;;;;;;;1999.90;999.90;;;;;;;;;;4917798;29;20284;-68
2023/10/23 12:28:52;;;;;;;1999.90;999.90;;;;;;;;;;4933180;29;20344;-68
2023/10/23 12:31:36;;;;;;;1999.90;999.90;;;;;;;;;;4936283;29;20231;-68
2023/10/23 12:34:21;;;;;;;1999.90;999.90;;;;;;;;;;4935591;29;20215;-67
2023/10/23 12:37:07;;;;;;;1999.90;999.90;;;;;;;;;;4936336;29;20213;-68
2023/10/23 12:39:53;;;;;;;1999.90;999.90;;;;;;;;;;4926293;29;20353;-68
2023/10/23 12:42:39;;;;;;;1999.90;999.90;;;;;;;;;;4935730;29;20749;-67
2023/10/23 12:45:25;;;;;;;1999.90;999.90;;;;;;;;;;4917189;29;20345;-68
2023/10/23 12:48:10;;;;;;;1999.90;999.90;;;;;;;;;;4928173;29;20591;-67
2023/10/23 12:50:56;;;;;;;1999.90;999.90;;;;;;;;;;4936132;29;20712;-67
2023/10/23 12:53:42;;;;;;;1999.90;999.90;;;;;;;;;;4921462;29;20213;-68
2023/10/23 12:56:27;;;;;;;1999.90;999.90;;;;;;;;;;4935988;29;20648;-67
2023/10/23 12:59:12;;;;;;;1999.90;999.90;;;;;;;;;;4936073;29;20209;-67
2023/10/23 13:01:57;;;;;;;1999.90;999.90;;;;;;;;;;4935028;29;20354;-68
2023/10/23 13:04:42;;;;;;;1999.90;999.90;;;;;;;;;;4935814;29;20666;-68
2023/10/23 13:07:27;;;;;;;1999.90;999.90;;;;;;;;;;4916844;29;20600;-67
2023/10/23 13:10:13;;;;;;;1999.90;999.90;;;;;;;;;;4915437;29;21045;-67
2023/10/23 13:12:58;;;;;;;1999.90;999.90;;;;;;;;;;4928737;29;20225;-67
2023/10/23 13:15:43;;;;;;;1999.90;999.90;;;;;;;;;;4935918;29;20288;-67
2023/10/23 13:18:28;;;;;;;1999.90;999.90;;;;;;;;;;4935627;29;20218;-68
2023/10/23 13:21:13;;;;;;;1999.90;999.90;;;;;;;;;;4934974;29;20612;-68
2023/10/23 13:23:58;;;;;;;1999.90;999.90;;;;;;;;;;4935452;29;20223;-68
2023/10/23 13:26:44;;;;;;;1999.90;999.90;;;;;;;;;;4935185;29;20229;-67
2023/10/23 13:29:32;;;;;;;1999.90;999.90;;;;;;;;;;4916423;29;20217;-67
2023/10/23 13:32:17;;;;;;;1999.90;999.90;;;;;;;;;;4931162;29;20239;-67
2023/10/23 13:35:04;;;;;;;1999.90;999.90;;;;;;;;;;4934956;29;20209;-68
2023/10/23 13:37:49;;;;;;;1999.90;999.90;;;;;;;;;;4934509;29;20212;-68
2023/10/23 13:40:34;;;;;;;1999.90;999.90;;;;;;;;;;4935080;29;20229;-68
2023/10/23 13:43:20;;;;;;;1999.90;999.90;;;;;;;;;;4934875;29;20265;-68
2023/10/23 13:46:05;;;;;;;1999.90;999.90;;;;;;;;;;4934943;29;20289;-67
2023/10/23 13:48:50;;;;;;;1999.90;999.90;;;;;;;;;;4935137;29;20213;-67
2023/10/23 13:51:34;;;;;;;1999.90;999.90;;;;;;;;;;4934899;29;20221;-68
2023/10/23 13:54:19;;;;;;;1999.90;999.90;;;;;;;;;;4935035;29;20204;-67
2023/10/23 13:57:04;;;;;;;1999.90;999.90;;;;;;;;;;4935078;29;20216;-67
2023/10/23 13:59:51;;;;;;;1999.90;999.90;;;;;;;;;;4934964;29;20205;-68
2023/10/23 14:02:36;;;;;;;1999.90;999.90;;;;;;;;;;4945364;29;20438;-68
2023/10/23 14:05:21;;;;;;;1999.90;999.90;;;;;;;;;;4934396;29;20790;-67
2023/10/23 14:08:06;;;;;;;1999.90;999.90;;;;;;;;;;4930725;29;20260;-67
2023/10/23 14:10:52;;;;;;;1999.90;999.90;;;;;;;;;;4930918;29;20350;-68
2023/10/23 14:13:37;;;;;;;1999.90;999.90;;;;;;;;;;4934869;29;20280;-67
2023/10/23 14:16:24;;;;;;;1999.90;999.90;;;;;;;;;;4935068;29;20211;-66
2023/10/23 14:19:11;;;;;;;1999.90;999.90;;;;;;;;;;4933315;29;20207;-67
2023/10/23 14:21:56;;;;;;;1999.90;999.90;;;;;;;;;;4934655;29;20233;-67
2023/10/23 14:24:41;;;;;;;1999.90;999.90;;;;;;;;;;4931953;29;20534;-68
2023/10/23 14:27:26;;;;;;;1999.90;999.90;;;;;;;;;;4934965;29;20722;-67
2023/10/23 14:30:11;;;;;;;1999.90;999.90;;;;;;;;;;4934753;29;20292;-67
2023/10/23 14:32:57;;;;;;;1999.90;999.90;;;;;;;;;;4934863;29;20330;-68
2023/10/23 14:35:42;;;;;;;1999.90;999.90;;;;;;;;;;4934400;29;20354;-67
2023/10/23 14:38:27;;;;;;;1999.90;999.90;;;;;;;;;;4930595;29;20290;-68
2023/10/23 14:41:12;;;;;;;1999.90;999.90;;;;;;;;;;4933888;29;20233;-67
2023/10/23 14:43:59;;;;;;;1999.90;999.90;;;;;;;;;;4933945;29;20292;-67
2023/10/23 14:46:44;;;;;;;1999.90;999.90;;;;;;;;;;4933968;29;20682;-66
2023/10/23 14:49:31;;;;;;;1999.90;999.90;;;;;;;;;;4921815;29;20205;-70
2023/10/23 14:52:16;;;;;;;1999.90;999.90;;;;;;;;;;4935031;29;20248;-70
2023/10/23 14:55:03;;;;;;;1999.90;999.90;;;;;;;;;;4934588;29;20212;-69
2023/10/23 14:57:48;;;;;;;1999.90;999.90;;;;;;;;;;4934386;29;20212;-69
2023/10/23 15:00:34;;;;;;;1999.90;999.90;;;;;;;;;;4930825;29;20217;-68
2023/10/23 15:03:19;;;;;;;1999.90;999.90;;;;;;;;;;4915746;29;20209;-69
2023/10/23 15:06:09;;;;;;;1999.90;999.90;;;;;;;;;;4915593;29;20293;-70
2023/10/23 15:08:54;;;;;;;1999.90;999.90;;;;;;;;;;4930703;29;20212;-68
2023/10/23 15:11:39;;;;;;;1999.90;999.90;;;;;;;;;;4934504;29;20744;-70
2023/10/23 15:14:24;;;;;;;1999.90;999.90;;;;;;;;;;4934636;29;20216;-68
2023/10/23 15:17:08;;;;;;;1999.90;999.90;;;;;;;;;;4934601;29;20602;-70
2023/10/23 15:19:54;;;;;;;1999.90;999.90;;;;;;;;;;4932998;29;20450;-69
2023/10/23 15:22:40;;;;;;;1999.90;999.90;;;;;;;;;;4934190;29;20244;-70
2023/10/23 15:25:25;;;;;;;1999.90;999.90;;;;;;;;;;4934536;29;20285;-70
2023/10/23 15:28:10;;;;;;;1999.90;999.90;;;;;;;;;;4937856;29;20906;-69
2023/10/23 15:30:56;;;;;;;1999.90;999.90;;;;;;;;;;4937710;29;20226;-70
2023/10/23 15:33:41;;;;;;;1999.90;999.90;;;;;;;;;;4937766;29;20260;-69
2023/10/23 15:36:27;;;;;;;1999.90;999.90;;;;;;;;;;4937349;29;20272;-69
2023/10/23 15:39:15;;;;;;;1999.90;999.90;;;;;;;;;;4926836;29;20616;-67
2023/10/23 15:42:01;;;;;;;1999.90;999.90;;;;;;;;;;4936594;29;20428;-69
2023/10/23 15:44:46;;;;;;;1999.90;999.90;;;;;;;;;;4936781;29;20212;-68
2023/10/23 15:47:31;;;;;;;1999.90;999.90;;;;;;;;;;4937602;29;20296;-70
2023/10/23 15:50:16;;;;;;;1999.90;999.90;;;;;;;;;;4936988;29;20225;-69
2023/10/23 15:53:02;;;;;;;1999.90;999.90;;;;;;;;;;4937132;29;20209;-68
2023/10/23 15:55:49;;;;;;;1999.90;999.90;;;;;;;;;;4934079;29;20224;-69
2023/10/23 15:58:34;;;;;;;1999.90;999.90;;;;;;;;;;4936465;29;20237;-69
2023/10/23 16:01:19;;;;;;;1999.90;999.90;;;;;;;;;;4936433;29;20614;-69
2023/10/23 16:04:04;;;;;;;1999.90;999.90;;;;;;;;;;4936650;29;20205;-70
2023/10/23 16:06:50;;;;;;;1999.90;999.90;;;;;;;;;;4936651;29;20374;-70
2023/10/23 16:09:35;;;;;;;1999.90;999.90;;;;;;;;;;4937758;29;20216;-69
2023/10/23 16:12:21;;;;;;;1999.90;999.90;;;;;;;;;;4938773;29;20230;-70
2023/10/23 16:15:07;;;;;;;1999.90;999.90;;;;;;;;;;4933723;29;20321;-70
2023/10/23 16:17:52;;;;;;;1999.90;999.90;;;;;;;;;;4937531;29;20224;-69
2023/10/23 16:20:37;;;;;;;1999.90;999.90;;;;;;;;;;4935938;29;20232;-70
2023/10/23 16:23:22;;;;;;;1999.90;999.90;;;;;;;;;;4936645;29;20236;-71
2023/10/23 16:26:07;;;;;;;1999.90;999.90;;;;;;;;;;4936419;29;20336;-70
2023/10/23 16:28:53;;;;;;;1999.90;999.90;;;;;;;;;;4936602;29;20224;-71
2023/10/23 16:31:38;;;;;;;1999.90;999.90;;;;;;;;;;4936616;29;20232;-71
2023/10/23 16:34:23;;;;;;;1999.90;999.90;;;;;;;;;;4936698;29;20232;-71
2023/10/23 16:37:07;;;;;;;1999.90;999.90;;;;;;;;;;4927896;29;20648;-70
2023/10/23 16:39:52;;;;;;;1999.90;999.90;;;;;;;;;;4936180;29;20219;-71
2023/10/23 16:42:37;;;;;;;1999.90;999.90;;;;;;;;;;4935868;29;20262;-70
2023/10/23 16:45:25;;;;;;;1999.90;999.90;;;;;;;;;;4936007;29;20219;-71
2023/10/23 16:48:10;;;;;;;1999.90;999.90;;;;;;;;;;4927506;29;20320;-70
2023/10/23 16:50:55;;;;;;;1999.90;999.90;;;;;;;;;;4936024;29;20620;-71
2023/10/23 16:53:40;;;;;;;1999.90;999.90;;;;;;;;;;4917303;29;20274;-71
2023/10/23 16:56:25;;;;;;;1999.90;999.90;;;;;;;;;;4917318;29;20582;-70
2023/10/23 16:59:11;;;;;;;1999.90;999.90;;;;;;;;;;4927674;29;20220;-71
2023/10/23 17:01:57;;;;;;;1999.90;999.90;;;;;;;;;;4934351;29;21212;-71
2023/10/23 17:04:42;;;;;;;1999.90;999.90;;;;;;;;;;4935177;29;20212;-70
2023/10/23 17:07:29;;;;;;;1999.90;999.90;;;;;;;;;;4936184;29;20232;-70
2023/10/23 17:10:14;;;;;;;1999.90;999.90;;;;;;;;;;4936082;29;20216;-71
2023/10/23 17:12:59;;;;;;;1999.90;999.90;;;;;;;;;;4917096;29;20212;-71
2023/10/23 17:15:44;;;;;;;1999.90;999.90;;;;;;;;;;4917407;29;20579;-71
2023/10/23 17:18:30;;;;;;;1999.90;999.90;;;;;;;;;;4916708;29;20774;-71
2023/10/23 17:21:16;;;;;;;1999.90;999.90;;;;;;;;;;4922544;29;20728;-71
2023/10/23 17:24:01;;;;;;;1999.90;999.90;;;;;;;;;;4916793;29;20726;-71
2023/10/23 17:26:46;;;;;;;1999.90;999.90;;;;;;;;;;4915624;29;20708;-70
2023/10/23 17:29:31;;;;;;;1999.90;999.90;;;;;;;;;;4930415;29;20215;-70
2023/10/23 17:32:16;;;;;;;1999.90;999.90;;;;;;;;;;4936298;29;20348;-70
2023/10/23 17:35:03;;;;;;;1999.90;999.90;;;;;;;;;;4927103;29;20296;-70
2023/10/23 17:37:48;;;;;;;1999.90;999.90;;;;;;;;;;4935504;29;20216;-70
2023/10/23 17:40:35;;;;;;;1999.90;999.90;;;;;;;;;;4933028;29;20303;-70
2023/10/23 17:43:20;;;;;;;1999.90;999.90;;;;;;;;;;4934577;29;20252;-69
2023/10/23 17:46:05;;;;;;;1999.90;999.90;;;;;;;;;;4934728;29;20219;-70
2023/10/23 17:48:51;;;;;;;1999.90;999.90;;;;;;;;;;4934456;29;20700;-70
2023/10/23 17:51:38;;;;;;;1999.90;999.90;;;;;;;;;;4928195;29;20605;-70
2023/10/23 17:54:23;;;;;;;1999.90;999.90;;;;;;;;;;4919250;29;20215;-70
2023/10/23 17:57:08;;;;;;;1999.90;999.90;;;;;;;;;;4925204;29;20267;-70
2023/10/23 17:59:53;;;;;;;1999.90;999.90;;;;;;;;;;4938190;29;20209;-70
2023/10/23 18:02:38;;;;;;;1999.90;999.90;;;;;;;;;;4935796;28;20228;-68
2023/10/23 18:05:23;;;;;;;1999.90;999.90;;;;;;;;;;4941499;29;20233;-70
2023/10/23 18:08:09;;;;;;;1999.90;999.90;;;;;;;;;;4943193;29;20211;-70
2023/10/23 18:10:54;;;;;;;1999.90;999.90;;;;;;;;;;4935858;29;20760;-70
2023/10/23 18:13:40;;;;;;;1999.90;999.90;;;;;;;;;;4942046;29;20229;-71
2023/10/23 18:16:26;;;;;;;1999.90;999.90;;;;;;;;;;4935731;29;20215;-70
2023/10/23 18:19:11;;;;;;;1999.90;999.90;;;;;;;;;;4937690;29;20418;-71
2023/10/23 18:21:56;;;;;;;1999.90;999.90;;;;;;;;;;4941372;28;20223;-70
2023/10/23 18:24:42;;;;;;;1999.90;999.90;;;;;;;;;;4936118;29;20209;-70
2023/10/23 18:27:27;;;;;;;1999.90;999.90;;;;;;;;;;4939708;29;20344;-70
2023/10/23 18:30:13;;;;;;;1999.90;999.90;;;;;;;;;;4931151;29;20731;-70
2023/10/23 18:32:58;;;;;;;1999.90;999.90;;;;;;;;;;4935778;29;20210;-68
2023/10/23 18:35:43;;;;;;;1999.90;999.90;;;;;;;;;;4944338;29;20346;-70
2023/10/23 18:38:28;;;;;;;1999.90;999.90;;;;;;;;;;4934939;29;20707;-68
2023/10/23 18:41:18;;;;;;;1999.90;999.90;;;;;;;;;;4941689;28;20322;-70
2023/10/23 18:44:03;;;;;;;1999.90;999.90;;;;;;;;;;4935627;29;20654;-69
2023/10/23 18:46:48;;;;;;;1999.90;999.90;;;;;;;;;;4945504;29;20214;-69
2023/10/23 18:49:33;;;;;;;1999.90;999.90;;;;;;;;;;4931566;29;20209;-69
2023/10/23 18:52:18;;;;;;;1999.90;999.90;;;;;;;;;;4933136;29;20236;-70
2023/10/23 18:55:03;;;;;;;1999.90;999.90;;;;;;;;;;4945731;29;20706;-68
2023/10/23 18:57:50;;;;;;;1999.90;999.90;;;;;;;;;;4933381;29;20209;-70
2023/10/23 19:00:35;;;;;;;1999.90;999.90;;;;;;;;;;4932034;29;20718;-70
2023/10/23 19:03:20;;;;;;;1999.90;999.90;;;;;;;;;;4954508;29;20260;-69
2023/10/23 19:06:05;;;;;;;1999.90;999.90;;;;;;;;;;4955640;29;20577;-70
2023/10/23 19:08:53;;;;;;;1999.90;999.90;;;;;;;;;;4954638;29;20212;-70
2023/10/23 19:11:38;;;;;;;1999.90;999.90;;;;;;;;;;4951005;28;20288;-70
2023/10/23 19:14:24;;;;;;;1999.90;999.90;;;;;;;;;;4951781;29;20216;-70
2023/10/23 19:17:09;;;;;;;1999.90;999.90;;;;;;;;;;4952070;29;20222;-66
2023/10/23 19:19:54;;;;;;;1999.90;999.90;;;;;;;;;;4951247;29;20212;-69
2023/10/23 19:22:39;;;;;;;1999.90;999.90;;;;;;;;;;4951917;28;20227;-70
2023/10/23 19:25:27;;;;;;;1999.90;999.90;;;;;;;;;;4954433;29;20209;-69